createdAt,value
2023-04-16T00:01:36.984Z,62.87
2023-04-16T00:04:38.912Z,60.87
2023-04-16T00:07:41.131Z,58.30
2023-04-16T00:10:42.861Z,59.43
2023-04-16T00:13:44.587Z,62.80
2023-04-16T00:16:46.686Z,62.40
2023-04-16T00:19:48.518Z,59.20
2023-04-16T00:22:51.529Z,61.33
2023-04-16T00:25:53.895Z,55.90
2023-04-16T00:28:55.688Z,57.43
2023-04-16T00:31:57.437Z,55.57
2023-04-16T00:34:59.209Z,56.70
2023-04-16T00:38:00.974Z,61.00
2023-04-16T00:41:02.829Z,59.23
2023-04-16T00:44:04.559Z,59.37
2023-04-16T00:47:07.669Z,56.53
2023-04-16T00:50:11.392Z,60.37
2023-04-16T00:53:14.777Z,60.00
2023-04-16T00:56:17.831Z,56.47
2023-04-16T00:59:19.920Z,56.07
2023-04-16T01:02:21.742Z,57.90
2023-04-16T01:05:23.526Z,54.30
2023-04-16T01:08:25.333Z,50.57
2023-04-16T01:11:27.327Z,52.30
2023-04-16T01:14:29.216Z,53.20
2023-04-16T01:17:30.897Z,49.37
2023-04-16T01:20:36.039Z,47.57
2023-04-16T01:23:37.825Z,46.13
2023-04-16T01:26:39.499Z,49.40
2023-04-16T01:29:41.270Z,50.13
2023-04-16T01:32:43.020Z,50.10
2023-04-16T01:35:44.869Z,46.17
2023-04-16T01:38:46.649Z,47.23
2023-04-16T01:41:48.343Z,44.80
2023-04-16T01:44:50.155Z,44.10
2023-04-16T01:47:52.452Z,45.67
2023-04-16T01:50:54.169Z,46.97
2023-04-16T01:53:56.154Z,45.17
2023-04-16T01:56:57.916Z,47.13
2023-04-16T01:59:59.622Z,48.17
2023-04-16T02:03:01.675Z,48.27
2023-04-16T02:06:03.727Z,51.40
2023-04-16T02:09:05.484Z,48.90
2023-04-16T02:12:07.885Z,50.77
2023-04-16T02:15:10.051Z,52.27
2023-04-16T02:18:11.737Z,48.47
2023-04-16T02:21:13.947Z,46.13
2023-04-16T02:24:15.801Z,45.37
2023-04-16T02:27:17.523Z,47.67
2023-04-16T02:30:19.268Z,45.47
2023-04-16T02:33:21.197Z,41.33
2023-04-16T02:36:23.308Z,41.03
2023-04-16T02:39:25.052Z,40.67
2023-04-16T02:42:26.791Z,38.90
2023-04-16T02:45:28.571Z,38.90
2023-04-16T02:48:30.385Z,37.33
2023-04-16T02:51:33.233Z,39.50
2023-04-16T02:54:34.944Z,36.77
2023-04-16T02:57:36.727Z,39.37
2023-04-16T03:00:38.498Z,42.70
2023-04-16T03:03:40.359Z,45.37
2023-04-16T03:06:42.013Z,44.07
2023-04-16T03:09:43.944Z,44.43
2023-04-16T03:12:45.729Z,47.90
2023-04-16T03:15:50.693Z,47.63
2023-04-16T03:18:52.421Z,50.87
2023-04-16T03:21:54.124Z,51.80
2023-04-16T03:24:55.909Z,49.97
2023-04-16T03:27:57.629Z,52.17
2023-04-16T03:30:59.477Z,52.00
2023-04-16T03:34:01.459Z,53.60
2023-04-16T03:37:03.198Z,58.70
2023-04-16T03:40:08.315Z,62.47
2023-04-16T03:43:10.112Z,65.53
2023-04-16T03:46:11.901Z,68.40
2023-04-16T03:49:13.684Z,69.00
2023-04-16T03:52:15.849Z,69.27
2023-04-16T03:55:17.589Z,77.07
2023-04-16T03:58:19.967Z,74.27
2023-04-16T04:01:21.635Z,72.30
2023-04-16T04:04:23.499Z,73.17
2023-04-16T04:07:25.364Z,66.53
2023-04-16T04:10:27.180Z,70.33
2023-04-16T04:13:28.912Z,70.70
2023-04-16T04:16:31.539Z,68.30
2023-04-16T04:19:33.340Z,69.13
2023-04-16T04:22:35.053Z,67.50
2023-04-16T04:25:36.858Z,61.70
2023-04-16T04:28:38.559Z,62.97
2023-04-16T04:31:40.926Z,68.83
2023-04-16T04:34:42.638Z,65.40
2023-04-16T04:37:44.396Z,58.30
2023-04-16T04:40:46.824Z,65.60
2023-04-16T04:43:48.523Z,65.77
2023-04-16T04:46:50.445Z,63.67
2023-04-16T04:49:52.179Z,64.97
2023-04-16T04:52:53.870Z,63.77
2023-04-16T04:56:01.744Z,68.27
2023-04-16T04:59:11.454Z,68.87
2023-04-16T05:02:13.874Z,69.97
2023-04-16T05:05:15.655Z,71.57
2023-04-16T05:08:17.530Z,64.00
2023-04-16T05:11:19.227Z,70.47
2023-04-16T05:14:21.112Z,72.90
2023-04-16T05:17:23.013Z,67.80
2023-04-16T05:20:24.772Z,72.23
2023-04-16T05:23:26.458Z,77.73
2023-04-16T05:26:28.193Z,70.57
2023-04-16T05:29:29.991Z,77.57
2023-04-16T05:32:31.737Z,72.87
2023-04-16T05:35:34.429Z,72.37
2023-04-16T05:38:36.128Z,77.57
2023-04-16T05:41:37.873Z,76.53
2023-04-16T05:44:40.584Z,73.67
2023-04-16T05:47:42.375Z,90.07
2023-04-16T05:50:44.323Z,76.13
2023-04-16T05:53:46.028Z,75.20
2023-04-16T05:56:47.711Z,75.97
2023-04-16T05:59:49.400Z,82.00
2023-04-16T06:02:51.426Z,75.40
2023-04-16T06:05:53.692Z,71.47
2023-04-16T06:08:55.452Z,78.43
2023-04-16T06:11:57.971Z,77.73
2023-04-16T06:15:18.338Z,99.00
2023-04-16T06:18:20.170Z,76.20
2023-04-16T06:21:21.962Z,77.63
2023-04-16T06:24:23.653Z,71.40
2023-04-16T06:27:25.914Z,74.00
2023-04-16T06:30:27.788Z,72.57
2023-04-16T06:33:29.539Z,75.83
2023-04-16T06:36:31.328Z,69.20
2023-04-16T06:39:33.247Z,70.43
2023-04-16T06:42:34.998Z,70.30
2023-04-16T06:45:45.028Z,67.97
2023-04-16T06:48:49.910Z,77.17
2023-04-16T06:51:51.706Z,75.53
2023-04-16T06:54:53.407Z,66.53
2023-04-16T06:57:55.097Z,67.27
2023-04-16T07:00:56.974Z,71.17
2023-04-16T07:03:59.174Z,69.60
2023-04-16T07:07:01.186Z,63.53
2023-04-16T07:10:05.759Z,62.93
2023-04-16T07:13:07.530Z,65.50
2023-04-16T07:16:09.707Z,80.17
2023-04-16T07:19:11.963Z,59.43
2023-04-16T07:22:22.053Z,58.93
2023-04-16T07:25:23.829Z,62.77
2023-04-16T07:28:25.943Z,57.03
2023-04-16T07:31:31.002Z,53.07
2023-04-16T07:34:32.715Z,52.30
2023-04-16T07:37:34.472Z,45.33
2023-04-16T07:40:37.563Z,45.33
2023-04-16T07:43:39.276Z,46.10
2023-04-16T07:46:46.897Z,46.87
2023-04-16T07:49:55.017Z,48.73
2023-04-16T07:52:56.751Z,45.43
2023-04-16T07:55:58.467Z,43.20
2023-04-16T07:59:08.043Z,45.37
2023-04-16T08:02:21.028Z,44.33
2023-04-16T08:05:22.872Z,43.17
2023-04-16T08:08:24.768Z,41.60
2023-04-16T08:11:26.517Z,40.70
2023-04-16T08:14:28.458Z,44.10
2023-04-16T08:17:30.198Z,41.37
2023-04-16T08:20:32.593Z,42.50
2023-04-16T08:23:34.506Z,38.50
2023-04-16T08:26:36.213Z,39.90
2023-04-16T08:29:37.913Z,37.23
2023-04-16T08:32:39.873Z,37.50
2023-04-16T08:35:41.654Z,39.77
2023-04-16T08:38:43.347Z,37.27
2023-04-16T08:41:46.873Z,34.90
2023-04-16T08:44:52.957Z,39.27
2023-04-16T08:47:54.683Z,38.47
2023-04-16T08:50:56.782Z,35.17
2023-04-16T08:54:28.214Z,36.20
2023-04-16T08:57:35.595Z,38.33
2023-04-16T09:00:39.422Z,36.20
2023-04-16T09:03:41.882Z,36.00
2023-04-16T09:06:44.205Z,38.00
2023-04-16T09:09:48.510Z,37.63
2023-04-16T09:12:50.378Z,40.73
2023-04-16T09:15:57.092Z,40.93
2023-04-16T09:18:58.892Z,43.37
2023-04-16T09:22:00.625Z,42.17
2023-04-16T09:25:02.803Z,40.50
2023-04-16T09:28:04.704Z,39.30
2023-04-16T09:31:17.452Z,41.07
2023-04-16T09:34:19.203Z,39.60
2023-04-16T09:37:21.067Z,38.10
2023-04-16T09:40:27.512Z,35.73
2023-04-16T09:43:29.257Z,37.47
2023-04-16T09:46:43.314Z,40.37
2023-04-16T09:49:45.562Z,34.43
2023-04-16T09:52:51.650Z,33.03
2023-04-16T09:55:57.768Z,31.93
2023-04-16T09:59:02.702Z,35.33
2023-04-16T10:02:14.680Z,41.30
2023-04-16T10:05:26.821Z,39.30
2023-04-16T10:08:29.021Z,40.13
2023-04-16T10:11:31.319Z,41.43
2023-04-16T10:14:36.452Z,41.90
2023-04-16T10:17:39.130Z,45.03
2023-04-16T10:20:41.033Z,49.13
2023-04-16T10:23:43.819Z,47.80
2023-04-16T10:26:46.885Z,44.73
2023-04-16T10:29:49.257Z,46.37
2023-04-16T10:32:51.970Z,52.43
2023-04-16T10:36:17.482Z,50.97
2023-04-16T10:39:21.885Z,53.93
2023-04-16T10:42:23.740Z,56.83
2023-04-16T10:45:37.316Z,56.47
2023-04-16T10:48:49.112Z,51.47
2023-04-16T10:52:08.401Z,51.47
2023-04-16T10:55:17.404Z,58.20
2023-04-16T10:58:34.895Z,57.33
2023-04-16T11:01:41.035Z,58.00
2023-04-16T11:04:45.714Z,59.87
2023-04-16T11:07:49.801Z,58.40
2023-04-16T11:10:52.389Z,55.67
2023-04-16T11:13:56.979Z,58.53
2023-04-16T11:16:58.772Z,53.83
2023-04-16T11:20:00.992Z,62.03
2023-04-16T11:23:02.693Z,53.93
2023-04-16T11:26:04.455Z,55.40
2023-04-16T11:29:15.029Z,56.40
2023-04-16T11:32:23.066Z,57.20
2023-04-16T11:35:24.931Z,55.63
2023-04-16T11:38:41.184Z,53.47
2023-04-16T11:41:47.521Z,50.77
2023-04-16T11:44:54.328Z,50.27
2023-04-16T11:47:57.806Z,49.83
2023-04-16T11:50:59.911Z,49.83
2023-04-16T11:54:02.419Z,52.57
2023-04-16T11:57:06.911Z,48.67
2023-04-16T12:00:13.940Z,46.47
2023-04-16T12:03:16.428Z,44.17
2023-04-16T12:06:18.286Z,45.67
2023-04-16T12:09:27.328Z,45.80
2023-04-16T12:12:31.864Z,47.03
2023-04-16T12:15:44.972Z,48.23
2023-04-16T12:19:01.251Z,42.60
2023-04-16T12:22:02.970Z,46.10
2023-04-16T12:25:11.896Z,46.20
2023-04-16T12:28:13.856Z,44.37
2023-04-16T12:31:15.800Z,48.90
2023-04-16T12:34:18.823Z,52.63
2023-04-16T12:37:20.587Z,50.17
2023-04-16T12:40:22.329Z,48.33
2023-04-16T12:43:24.999Z,44.53
2023-04-16T12:46:26.817Z,42.97
2023-04-16T12:49:28.630Z,45.70
2023-04-16T12:52:30.991Z,40.60
2023-04-16T12:55:55.007Z,40.87
2023-04-16T12:58:56.921Z,44.53
2023-04-16T13:02:00.880Z,46.00
2023-04-16T13:05:02.908Z,40.83
2023-04-16T13:12:32.851Z,39.60
2023-04-16T13:15:34.728Z,35.57
2023-04-16T13:18:37.120Z,32.07
2023-04-16T13:21:39.005Z,31.40
2023-04-16T13:24:40.784Z,32.40
2023-04-16T13:27:42.537Z,33.63
2023-04-16T13:30:45.213Z,34.43
2023-04-16T13:33:47.568Z,34.87
2023-04-16T13:36:49.502Z,32.23
2023-04-16T13:39:51.202Z,31.53
2023-04-16T13:42:53.094Z,30.07
2023-04-16T13:45:54.791Z,29.77
2023-04-16T13:48:56.633Z,28.60
2023-04-16T13:51:58.347Z,34.27
2023-04-16T13:55:00.616Z,32.77
2023-04-16T13:58:03.137Z,30.47
2023-04-16T14:01:05.115Z,32.73
2023-04-16T14:04:07.488Z,34.57
2023-04-16T14:07:09.297Z,34.60
2023-04-16T14:10:11.484Z,31.43
2023-04-16T14:13:13.362Z,32.03
2023-04-16T14:16:17.554Z,31.93
2023-04-16T14:19:19.242Z,31.27
2023-04-16T14:22:21.179Z,28.47
2023-04-16T14:25:23.685Z,29.60
2023-04-16T14:32:47.914Z,30.93
2023-04-16T14:35:51.324Z,30.50
2023-04-16T14:38:53.106Z,28.37
2023-04-16T14:41:54.910Z,31.47
2023-04-16T14:44:56.912Z,29.60
2023-04-16T14:47:58.726Z,30.33
2023-04-16T14:51:00.620Z,27.57
2023-04-16T14:54:02.404Z,25.80
2023-04-16T14:57:05.620Z,27.47
2023-04-16T15:00:09.754Z,27.43
2023-04-16T15:03:11.732Z,29.93
2023-04-16T15:06:14.503Z,30.00
2023-04-16T15:09:16.224Z,31.13
2023-04-16T15:12:19.143Z,28.17
2023-04-16T15:15:21.208Z,26.23
2023-04-16T15:18:23.022Z,23.90
2023-04-16T15:21:26.533Z,24.03
2023-04-16T15:24:28.303Z,23.93
2023-04-16T15:27:30.032Z,24.60
2023-04-16T15:30:31.802Z,22.97
2023-04-16T15:33:33.599Z,22.67
2023-04-16T15:36:35.648Z,23.20
2023-04-16T15:39:37.370Z,22.07
2023-04-16T15:42:39.259Z,25.87
2023-04-16T15:45:51.168Z,23.63
2023-04-16T15:48:52.877Z,23.67
2023-04-16T15:51:55.584Z,24.83
2023-04-16T15:54:57.863Z,26.10
2023-04-16T15:57:59.736Z,22.30
2023-04-16T16:01:01.676Z,25.33
2023-04-16T16:04:03.611Z,27.00
2023-04-16T16:07:05.744Z,22.60
2023-04-16T16:10:09.273Z,24.47
2023-04-16T16:13:14.094Z,24.93
2023-04-16T16:16:16.191Z,24.93
2023-04-16T16:19:17.982Z,24.70
2023-04-16T16:22:20.683Z,25.30
2023-04-16T16:25:23.283Z,24.83
2023-04-16T16:28:25.336Z,24.97
2023-04-16T16:31:27.153Z,22.10
2023-04-16T16:34:28.903Z,23.23
2023-04-16T16:37:30.754Z,24.47
2023-04-16T16:40:32.701Z,23.97
2023-04-16T16:43:36.702Z,22.63
2023-04-16T16:46:38.508Z,23.63
2023-04-16T16:49:40.340Z,23.80
2023-04-16T16:52:42.105Z,24.13
2023-04-16T16:55:43.829Z,23.93
2023-04-16T16:58:45.532Z,25.77
2023-04-16T17:01:47.319Z,25.60
2023-04-16T17:04:49.185Z,22.70
2023-04-16T17:07:51.058Z,24.27
2023-04-16T17:10:52.767Z,25.00
2023-04-16T17:13:54.647Z,27.30
2023-04-16T17:17:03.866Z,28.37
2023-04-16T17:20:09.937Z,30.17
2023-04-16T17:23:11.985Z,31.27
2023-04-16T17:26:13.696Z,27.37
2023-04-16T17:29:15.464Z,32.00
2023-04-16T17:32:17.299Z,29.00
2023-04-16T17:35:19.175Z,29.80
2023-04-16T17:38:20.992Z,28.87
2023-04-16T17:41:22.720Z,32.70
2023-04-16T17:44:25.726Z,33.03
2023-04-16T17:47:39.456Z,32.07
2023-04-16T17:50:41.295Z,33.73
2023-04-16T17:53:43.598Z,31.50
2023-04-16T17:56:46.167Z,31.23
2023-04-16T17:59:47.864Z,31.00
2023-04-16T18:02:52.332Z,32.37
2023-04-16T18:05:54.227Z,32.80
2023-04-16T18:08:56.666Z,31.40
2023-04-16T18:11:58.334Z,33.33
2023-04-16T18:15:00.031Z,35.17
2023-04-16T18:18:01.740Z,41.23
2023-04-16T18:21:03.530Z,40.20
2023-04-16T18:24:05.611Z,39.10
2023-04-16T18:27:07.392Z,39.50
2023-04-16T18:30:18.899Z,38.37
2023-04-16T18:33:42.769Z,36.90
2023-04-16T18:36:46.890Z,35.63
2023-04-16T18:39:48.582Z,36.33
2023-04-16T18:42:50.609Z,35.47
2023-04-16T18:45:52.420Z,36.03
2023-04-16T18:48:54.227Z,34.90
2023-04-16T18:51:56.044Z,35.70
2023-04-16T18:54:57.801Z,38.97
2023-04-16T18:57:59.512Z,39.23
2023-04-16T19:01:02.159Z,35.83
2023-04-16T19:04:04.119Z,37.87
2023-04-16T19:07:06.085Z,35.83
2023-04-16T19:10:08.374Z,38.37
2023-04-16T19:13:10.215Z,37.17
2023-04-16T19:16:12.378Z,35.50
2023-04-16T19:19:14.289Z,37.40
2023-04-16T19:22:15.998Z,40.13
2023-04-16T19:25:17.780Z,41.43
2023-04-16T19:28:19.520Z,41.07
2023-04-16T19:35:50.439Z,37.70
2023-04-16T19:38:52.233Z,37.80
2023-04-16T19:41:53.929Z,38.57
2023-04-16T19:44:55.697Z,36.17
2023-04-16T19:47:57.832Z,38.67
2023-04-16T19:51:06.010Z,42.63
2023-04-16T19:54:07.806Z,41.57
2023-04-16T19:57:09.621Z,39.07
2023-04-16T20:00:11.911Z,39.50
2023-04-16T20:03:13.699Z,44.97
2023-04-16T20:06:17.444Z,43.23
2023-04-16T20:09:20.168Z,38.73
2023-04-16T20:12:22.420Z,44.97
2023-04-16T20:15:24.162Z,41.57
2023-04-16T20:18:28.251Z,42.87
2023-04-16T20:21:31.636Z,39.47
2023-04-16T20:24:34.255Z,41.90
2023-04-16T20:27:36.304Z,41.00
2023-04-16T20:30:41.392Z,37.80
2023-04-16T20:33:43.116Z,41.00
2023-04-16T20:36:44.878Z,36.07
2023-04-16T20:39:49.950Z,40.47
2023-04-16T20:42:52.113Z,41.07
2023-04-16T20:45:53.868Z,39.57
2023-04-16T20:49:26.900Z,40.50
2023-04-16T20:52:28.656Z,40.87
2023-04-16T20:55:30.386Z,46.87
2023-04-16T20:58:38.697Z,43.20
2023-04-16T21:01:40.583Z,44.60
2023-04-16T21:04:42.401Z,41.87
2023-04-16T21:07:44.166Z,41.17
2023-04-16T21:10:46.439Z,41.80
2023-04-16T21:13:48.229Z,39.37
2023-04-16T21:16:49.988Z,41.80
2023-04-16T21:19:51.784Z,39.23
2023-04-16T21:22:56.742Z,40.03
2023-04-16T21:25:58.475Z,36.97
2023-04-16T21:29:00.234Z,38.07
2023-04-16T21:32:01.978Z,39.07
2023-04-16T21:35:03.945Z,36.87
2023-04-16T21:38:05.701Z,34.20
2023-04-16T21:41:07.412Z,38.17
2023-04-16T21:44:09.111Z,37.00
2023-04-16T21:47:10.912Z,37.63
2023-04-16T21:50:12.987Z,33.57
2023-04-16T21:53:14.756Z,37.07
2023-04-16T21:56:16.461Z,34.60
2023-04-16T21:59:27.418Z,36.53
2023-04-16T22:02:29.245Z,34.00
2023-04-16T22:05:33.165Z,31.87
2023-04-16T22:08:34.921Z,29.20
2023-04-16T22:11:36.652Z,28.60
2023-04-16T22:14:44.056Z,29.70
2023-04-16T22:17:51.701Z,26.50
2023-04-16T22:20:54.942Z,24.77
2023-04-16T22:23:57.002Z,28.93
2023-04-16T22:26:58.770Z,28.97
2023-04-16T22:30:01.540Z,30.80
2023-04-16T22:33:03.904Z,30.03
2023-04-16T22:36:06.249Z,34.63
2023-04-16T22:39:08.642Z,31.73
2023-04-16T22:42:10.448Z,33.63
2023-04-16T22:45:12.721Z,34.70
2023-04-16T22:48:14.443Z,37.63
2023-04-16T22:51:16.162Z,42.57
2023-04-16T22:54:17.855Z,35.87
2023-04-16T22:57:25.357Z,36.53
2023-04-16T23:00:27.260Z,37.00
2023-04-16T23:03:29.170Z,35.37
2023-04-16T23:06:31.562Z,35.03
2023-04-16T23:09:33.480Z,33.40
2023-04-16T23:16:57.300Z,31.63
2023-04-16T23:19:58.972Z,40.50
2023-04-16T23:23:00.749Z,39.23
2023-04-16T23:26:02.847Z,39.87
2023-04-16T23:29:04.770Z,43.73
2023-04-16T23:32:06.548Z,45.90
2023-04-16T23:35:08.914Z,47.57
2023-04-16T23:38:10.681Z,49.63
2023-04-16T23:41:12.449Z,44.03
2023-04-16T23:44:14.166Z,43.93
2023-04-16T23:47:15.928Z,44.13
2023-04-16T23:50:17.777Z,41.63
2023-04-16T23:53:19.509Z,43.80
2023-04-16T23:56:21.268Z,44.63
2023-04-16T23:59:24.166Z,40.33
